Time;durP1;ratioP1;P1;durP2;ratioP2;P2;SDS_P1;SDS_P2;PMS_P1;PMS_P2;Temp;Humidity;BMP_temperature;BMP_pressure;BME280_temperature;BME280_humidity;BME280_pressure;Samples;Min_cycle;Max_cycle;Signal;HPM_P1;HPM_P2
2022/09/20 00:02:34;;;;;;;7.68;5.60;;;;;;;;;;10062895;28;20033;-52
2022/09/20 00:07:32;;;;;;;14.70;5.10;;;;;;;;;;10064176;28;20497;-52
2022/09/20 00:12:27;;;;;;;6.05;5.22;;;;;;;;;;10047070;28;20069;-48
2022/09/20 00:17:21;;;;;;;6.13;5.32;;;;;;;;;;10077157;28;20061;-50
2022/09/20 00:22:16;;;;;;;9.23;6.22;;;;;;;;;;10078712;28;20084;-53
2022/09/20 00:27:10;;;;;;;11.23;5.70;;;;;;;;;;10068170;28;20050;-49
2022/09/20 00:32:04;;;;;;;10.65;6.30;;;;;;;;;;10068897;28;20053;-48
2022/09/20 00:36:58;;;;;;;6.72;5.13;;;;;;;;;;10103563;28;20411;-50
2022/09/20 00:41:53;;;;;;;6.00;5.40;;;;;;;;;;10092465;28;20053;-53
2022/09/20 00:46:49;;;;;;;12.10;5.70;;;;;;;;;;10076565;28;20053;-48
2022/09/20 00:51:46;;;;;;;5.97;4.72;;;;;;;;;;10083011;28;20123;-51
2022/09/20 00:56:42;;;;;;;5.75;4.47;;;;;;;;;;10062666;28;20819;-52
2022/09/20 01:01:36;;;;;;;9.82;5.10;;;;;;;;;;10075375;28;20102;-52
2022/09/20 01:06:31;;;;;;;6.13;5.32;;;;;;;;;;10092165;28;20061;-51
2022/09/20 01:11:25;;;;;;;5.20;4.68;;;;;;;;;;10088281;28;20064;-49
2022/09/20 01:16:20;;;;;;;6.20;5.00;;;;;;;;;;10063274;28;20073;-53
2022/09/20 01:21:16;;;;;;;8.90;5.28;;;;;;;;;;10100662;28;20079;-52
2022/09/20 01:26:36;;;;;;;7.55;5.30;;;;;;;;;;10090796;28;20160;-51
2022/09/20 01:31:35;;;;;;;7.22;4.78;;;;;;;;;;10082673;28;20053;-52
2022/09/20 01:36:43;;;;;;;5.47;4.10;;;;;;;;;;10094372;28;20183;-53
2022/09/20 01:41:57;;;;;;;10.60;4.07;;;;;;;;;;10076627;28;20132;-49
2022/09/20 01:46:58;;;;;;;7.38;3.72;;;;;;;;;;10091701;28;20060;-51
2022/09/20 01:52:17;;;;;;;5.70;3.70;;;;;;;;;;10083694;28;20075;-51
2022/09/20 01:57:35;;;;;;;4.43;4.00;;;;;;;;;;9998575;28;20128;-48
2022/09/20 02:02:58;;;;;;;5.43;4.22;;;;;;;;;;10075372;28;20107;-53
2022/09/20 02:08:06;;;;;;;6.15;4.20;;;;;;;;;;10094198;28;20061;-52
2022/09/20 02:13:29;;;;;;;4.65;3.95;;;;;;;;;;10081437;28;20061;-53
2022/09/20 02:18:31;;;;;;;5.18;4.53;;;;;;;;;;10041686;28;20519;-50
2022/09/20 02:23:55;;;;;;;8.40;4.47;;;;;;;;;;10047828;28;20081;-51
2022/09/20 02:28:51;;;;;;;8.68;5.05;;;;;;;;;;10070914;28;20495;-50
2022/09/20 02:34:27;;;;;;;10.63;7.43;;;;;;;;;;10100289;28;20053;-52
2022/09/20 02:39:55;;;;;;;10.38;6.40;;;;;;;;;;10071999;28;20059;-50
2022/09/20 02:44:59;;;;;;;10.80;8.52;;;;;;;;;;10081271;28;20063;-52
2022/09/20 02:50:22;;;;;;;11.15;6.80;;;;;;;;;;10083203;28;20583;-51
2022/09/20 02:55:25;;;;;;;12.43;7.20;;;;;;;;;;10084117;28;20080;-52
2022/09/20 03:00:22;;;;;;;9.07;6.43;;;;;;;;;;10093608;28;20053;-50
2022/09/20 03:05:48;;;;;;;9.68;6.53;;;;;;;;;;10085512;28;20049;-51
2022/09/20 03:10:45;;;;;;;9.07;6.10;;;;;;;;;;10076583;28;20054;-53
2022/09/20 03:15:51;;;;;;;10.13;7.30;;;;;;;;;;10079627;28;20504;-50
2022/09/20 03:21:07;;;;;;;11.02;6.80;;;;;;;;;;10103753;28;20454;-50
2022/09/20 03:26:28;;;;;;;9.10;7.25;;;;;;;;;;10083025;28;20500;-53
2022/09/20 03:31:56;;;;;;;11.68;6.28;;;;;;;;;;10096731;28;20075;-47
2022/09/20 03:37:02;;;;;;;7.15;5.47;;;;;;;;;;10101029;28;20048;-51
2022/09/20 03:42:01;;;;;;;8.73;5.38;;;;;;;;;;10066132;28;20459;-52
2022/09/20 03:47:20;;;;;;;8.13;5.35;;;;;;;;;;10051875;28;20095;-53
2022/09/20 03:52:22;;;;;;;5.53;5.00;;;;;;;;;;10083685;28;20119;-53
2022/09/20 03:57:34;;;;;;;6.03;4.82;;;;;;;;;;10086184;28;20120;-51
2022/09/20 04:02:39;;;;;;;5.95;5.15;;;;;;;;;;10088503;28;20511;-53
2022/09/20 04:08:12;;;;;;;7.13;5.65;;;;;;;;;;10094843;28;20443;-51
2022/09/20 04:13:18;;;;;;;5.97;5.32;;;;;;;;;;10080465;28;20103;-52
2022/09/20 04:18:46;;;;;;;5.45;4.95;;;;;;;;;;10082898;28;20125;-52
2022/09/20 04:23:48;;;;;;;11.18;7.63;;;;;;;;;;10075348;28;20041;-51
2022/09/20 04:28:54;;;;;;;9.20;6.68;;;;;;;;;;10084429;28;20048;-49
2022/09/20 04:33:49;;;;;;;8.88;5.95;;;;;;;;;;10083485;28;20463;-52
2022/09/20 04:38:47;;;;;;;9.10;6.40;;;;;;;;;;10084388;28;20041;-51
2022/09/20 04:43:58;;;;;;;8.45;5.82;;;;;;;;;;10071792;28;20136;-51
2022/09/20 04:49:31;;;;;;;8.80;6.47;;;;;;;;;;10049656;28;20455;-55
2022/09/20 04:54:33;;;;;;;6.80;5.43;;;;;;;;;;10083170;28;20448;-49
2022/09/20 04:59:48;;;;;;;6.60;5.50;;;;;;;;;;10072523;28;20076;-54
2022/09/20 05:05:25;;;;;;;7.72;5.80;;;;;;;;;;10091294;28;20083;-52
2022/09/20 05:10:42;;;;;;;8.27;5.85;;;;;;;;;;9906947;28;20103;-54
2022/09/20 05:16:06;;;;;;;10.43;6.10;;;;;;;;;;10018136;28;20049;-51
2022/09/20 05:21:27;;;;;;;18.92;7.40;;;;;;;;;;10058785;28;20042;-50
2022/09/20 05:26:46;;;;;;;9.23;6.50;;;;;;;;;;10067373;28;20563;-51
2022/09/20 05:31:55;;;;;;;9.13;6.90;;;;;;;;;;10075803;28;20057;-51
2022/09/20 05:37:06;;;;;;;8.52;7.18;;;;;;;;;;10059237;28;20038;-52
2022/09/20 05:42:31;;;;;;;15.40;8.02;;;;;;;;;;10058252;28;20052;-51
2022/09/20 05:47:38;;;;;;;8.98;6.57;;;;;;;;;;10035304;28;20414;-51
2022/09/20 05:52:56;;;;;;;10.23;7.53;;;;;;;;;;10078573;28;20057;-51
2022/09/20 05:58:23;;;;;;;8.10;5.85;;;;;;;;;;10037149;28;20424;-50
2022/09/20 06:03:36;;;;;;;10.82;6.40;;;;;;;;;;10080105;28;20059;-50
2022/09/20 06:09:16;;;;;;;12.25;6.78;;;;;;;;;;10061088;28;20057;-49
2022/09/20 06:14:33;;;;;;;10.97;7.07;;;;;;;;;;10074460;28;20053;-50
2022/09/20 06:19:31;;;;;;;12.82;6.78;;;;;;;;;;10038547;28;20493;-51
2022/09/20 06:24:30;;;;;;;10.52;6.65;;;;;;;;;;10076105;28;20394;-48
2022/09/20 06:29:32;;;;;;;10.15;7.30;;;;;;;;;;10064482;28;20068;-51
2022/09/20 06:34:27;;;;;;;9.90;6.85;;;;;;;;;;10069095;28;20042;-49
2022/09/20 06:44:48;;;;;;;10.13;8.98;;;;;;;;;;10066805;28;20049;-48
2022/09/20 06:49:45;;;;;;;10.60;7.20;;;;;;;;;;10068953;28;20505;-50
2022/09/20 06:54:39;;;;;;;13.00;7.45;;;;;;;;;;10086529;28;20076;-48
2022/09/20 06:59:34;;;;;;;7.28;6.55;;;;;;;;;;10082311;28;20042;-51
2022/09/20 07:04:27;;;;;;;8.80;7.90;;;;;;;;;;10075367;28;20080;-52
2022/09/20 07:09:22;;;;;;;10.18;8.10;;;;;;;;;;10084059;28;20049;-49
2022/09/20 07:14:16;;;;;;;9.77;7.78;;;;;;;;;;10076209;28;20055;-48
2022/09/20 07:19:09;;;;;;;8.95;7.32;;;;;;;;;;10079844;28;20073;-47
2022/09/20 07:24:03;;;;;;;10.32;9.25;;;;;;;;;;10076905;28;20057;-51
2022/09/20 07:28:58;;;;;;;10.63;9.63;;;;;;;;;;10073329;28;20061;-51
2022/09/20 07:33:52;;;;;;;13.32;9.73;;;;;;;;;;10083320;28;20049;-52
2022/09/20 07:38:47;;;;;;;11.50;9.43;;;;;;;;;;10074756;28;20060;-48
2022/09/20 07:43:41;;;;;;;11.35;9.27;;;;;;;;;;10060907;28;20459;-52
2022/09/20 07:48:35;;;;;;;8.73;7.43;;;;;;;;;;10082025;28;20393;-51
2022/09/20 07:53:30;;;;;;;11.15;7.78;;;;;;;;;;10075226;28;20064;-49
2022/09/20 07:58:24;;;;;;;9.85;7.68;;;;;;;;;;10080635;28;20056;-54
2022/09/20 08:03:18;;;;;;;10.80;8.00;;;;;;;;;;10067742;28;20076;-54
2022/09/20 08:08:12;;;;;;;10.57;6.97;;;;;;;;;;10062254;28;20476;-53
2022/09/20 08:13:07;;;;;;;17.35;6.82;;;;;;;;;;10064693;28;20488;-53
2022/09/20 08:18:21;;;;;;;7.80;4.85;;;;;;;;;;10062984;28;20416;-56
2022/09/20 08:23:15;;;;;;;9.48;5.30;;;;;;;;;;10062362;28;20077;-55
2022/09/20 08:28:16;;;;;;;10.80;5.30;;;;;;;;;;10059923;28;20069;-55
2022/09/20 08:33:10;;;;;;;9.07;4.40;;;;;;;;;;10062081;28;20041;-54
2022/09/20 08:38:06;;;;;;;9.07;4.32;;;;;;;;;;10066634;28;20081;-55
2022/09/20 08:43:19;;;;;;;8.02;4.93;;;;;;;;;;10060369;28;20103;-62
2022/09/20 08:48:15;;;;;;;11.93;3.97;;;;;;;;;;10066942;28;20545;-55
2022/09/20 08:53:12;;;;;;;9.05;3.30;;;;;;;;;;10069014;28;20054;-55
2022/09/20 08:58:09;;;;;;;7.78;4.15;;;;;;;;;;10069867;28;20064;-53
2022/09/20 09:03:06;;;;;;;8.80;3.67;;;;;;;;;;10059997;28;20061;-53
2022/09/20 09:08:06;;;;;;;7.00;3.13;;;;;;;;;;10061030;28;20477;-53
2022/09/20 09:13:01;;;;;;;8.90;3.60;;;;;;;;;;10053924;28;20077;-52
2022/09/20 09:17:55;;;;;;;9.85;3.70;;;;;;;;;;10073205;28;20042;-53
2022/09/20 09:23:24;;;;;;;8.25;4.20;;;;;;;;;;10072079;28;20049;-51
2022/09/20 09:28:22;;;;;;;8.70;3.90;;;;;;;;;;10053209;28;20069;-51
2022/09/20 09:33:28;;;;;;;8.02;2.85;;;;;;;;;;10075145;28;20057;-53
2022/09/20 09:38:24;;;;;;;;;;;;;;;;;;10076705;28;20667;-55
2022/09/20 09:43:27;;;;;;;9.82;3.95;;;;;;;;;;10075309;28;20268;-54
2022/09/20 09:48:24;;;;;;;6.68;2.85;;;;;;;;;;10079548;28;20500;-52
2022/09/20 09:53:21;;;;;;;4.65;2.10;;;;;;;;;;10081260;28;20056;-54
2022/09/20 09:58:48;;;;;;;12.88;2.78;;;;;;;;;;10082928;28;20136;-49
2022/09/20 10:04:05;;;;;;;9.77;3.17;;;;;;;;;;10082412;28;20435;-52
2022/09/20 10:09:21;;;;;;;8.95;2.53;;;;;;;;;;10079538;28;20108;-54
2022/09/20 10:14:17;;;;;;;7.95;3.50;;;;;;;;;;10053683;28;20057;-53
2022/09/20 10:19:10;;;;;;;7.95;1.70;;;;;;;;;;10075129;28;20049;-50
2022/09/20 10:24:32;;;;;;;6.30;1.67;;;;;;;;;;10075662;28;20500;-53
2022/09/20 10:29:25;;;;;;;5.78;2.10;;;;;;;;;;10020373;28;20136;-53
2022/09/20 10:34:45;;;;;;;9.02;1.83;;;;;;;;;;10078122;28;20416;-52
2022/09/20 10:39:46;;;;;;;8.93;1.83;;;;;;;;;;10064265;28;20057;-54
2022/09/20 10:45:04;;;;;;;6.53;2.20;;;;;;;;;;10084487;28;20424;-53
2022/09/20 10:50:13;;;;;;;3.80;1.60;;;;;;;;;;10076305;28;20060;-53
2022/09/20 10:55:40;;;;;;;7.40;1.83;;;;;;;;;;10068755;28;20049;-54
2022/09/20 11:01:12;;;;;;;6.43;1.30;;;;;;;;;;10072582;28;20049;-51
2022/09/20 11:06:07;;;;;;;3.60;1.23;;;;;;;;;;10066565;28;20053;-53
2022/09/20 11:11:05;;;;;;;3.38;1.30;;;;;;;;;;10074463;28;20053;-52
2022/09/20 11:16:04;;;;;;;4.85;1.85;;;;;;;;;;10066526;28;20041;-54
2022/09/20 11:21:10;;;;;;;8.43;1.73;;;;;;;;;;10083321;28;20056;-54
2022/09/20 11:26:12;;;;;;;6.97;2.20;;;;;;;;;;10103445;28;20492;-54
2022/09/20 11:31:37;;;;;;;3.25;0.93;;;;;;;;;;10229968;27;20470;-51
2022/09/20 11:37:00;;;;;;;6.88;1.27;;;;;;;;;;10213452;28;20044;-51
2022/09/20 11:41:55;;;;;;;7.63;1.20;;;;;;;;;;10212720;28;20126;-50
2022/09/20 11:47:14;;;;;;;6.88;1.10;;;;;;;;;;10199374;28;20039;-50
2022/09/20 11:52:49;;;;;;;8.40;2.25;;;;;;;;;;10197726;28;20056;-53
2022/09/20 11:57:43;;;;;;;5.75;1.38;;;;;;;;;;10213203;28;20074;-49
2022/09/20 12:02:51;;;;;;;3.22;1.20;;;;;;;;;;10215794;28;20105;-52
2022/09/20 12:07:45;;;;;;;5.82;1.55;;;;;;;;;;10191116;28;20485;-51
2022/09/20 12:12:46;;;;;;;6.85;1.50;;;;;;;;;;10209676;28;20426;-51
2022/09/20 12:17:45;;;;;;;3.20;1.08;;;;;;;;;;10194850;28;20048;-49
2022/09/20 12:22:39;;;;;;;2.80;1.10;;;;;;;;;;10209182;28;20052;-51
2022/09/20 12:27:32;;;;;;;2.92;1.00;;;;;;;;;;10194202;28;20132;-53
2022/09/20 12:32:30;;;;;;;3.97;1.10;;;;;;;;;;10165175;28;20518;-52
2022/09/20 12:37:24;;;;;;;7.07;1.08;;;;;;;;;;10165676;28;20041;-52
2022/09/20 12:42:17;;;;;;;4.30;1.25;;;;;;;;;;10128765;28;20049;-51
2022/09/20 12:47:11;;;;;;;3.17;1.20;;;;;;;;;;10139112;28;20063;-51
2022/09/20 12:57:34;;;;;;;5.90;1.02;;;;;;;;;;10137037;28;20056;-53
2022/09/20 13:02:51;;;;;;;4.70;1.50;;;;;;;;;;10128383;28;20419;-53
2022/09/20 13:07:53;;;;;;;6.38;1.33;;;;;;;;;;10150087;28;20083;-53
2022/09/20 13:12:46;;;;;;;2.90;1.30;;;;;;;;;;10124992;28;20571;-54
2022/09/20 13:17:49;;;;;;;4.55;1.20;;;;;;;;;;10136623;28;20503;-52
2022/09/20 13:22:44;;;;;;;7.45;1.38;;;;;;;;;;10122318;28;20131;-54
2022/09/20 13:27:44;;;;;;;5.65;2.05;;;;;;;;;;10150218;28;20083;-52
2022/09/20 13:32:40;;;;;;;7.95;1.33;;;;;;;;;;10165269;28;20048;-53
2022/09/20 13:37:33;;;;;;;6.32;1.42;;;;;;;;;;10178816;28;20047;-52
2022/09/20 13:42:28;;;;;;;8.70;1.35;;;;;;;;;;10175715;28;20123;-53
2022/09/20 13:47:28;;;;;;;3.42;1.35;;;;;;;;;;10177438;28;20398;-49
2022/09/20 13:52:42;;;;;;;4.10;1.55;;;;;;;;;;10161178;28;20509;-50
2022/09/20 13:57:39;;;;;;;5.93;0.80;;;;;;;;;;10172406;28;20678;-49
2022/09/20 14:02:33;;;;;;;2.03;0.75;;;;;;;;;;10177403;28;20411;-52
2022/09/20 14:07:28;;;;;;;6.53;1.55;;;;;;;;;;10175112;28;20536;-52
2022/09/20 14:12:22;;;;;;;1.75;0.90;;;;;;;;;;10168307;28;20135;-52
2022/09/20 14:17:18;;;;;;;5.43;1.13;;;;;;;;;;10172754;28;20044;-52
2022/09/20 14:22:26;;;;;;;3.58;1.23;;;;;;;;;;10180206;28;20055;-53
2022/09/20 14:27:21;;;;;;;5.75;1.38;;;;;;;;;;10177963;28;20527;-53
2022/09/20 14:32:17;;;;;;;2.03;1.00;;;;;;;;;;10175773;28;20109;-53
2022/09/20 14:37:26;;;;;;;4.72;1.00;;;;;;;;;;10177241;28;20052;-52
2022/09/20 14:42:25;;;;;;;3.92;1.88;;;;;;;;;;10160682;28;20063;-52
2022/09/20 14:47:26;;;;;;;3.50;1.02;;;;;;;;;;10173321;28;20105;-53
2022/09/20 14:52:25;;;;;;;7.97;1.20;;;;;;;;;;10171601;28;20041;-54
2022/09/20 14:57:19;;;;;;;5.30;1.55;;;;;;;;;;10159504;28;20423;-54
2022/09/20 15:02:13;;;;;;;2.92;1.85;;;;;;;;;;10154444;28;20083;-55
2022/09/20 15:07:11;;;;;;;4.38;1.13;;;;;;;;;;10152715;28;20074;-54
2022/09/20 15:12:17;;;;;;;8.93;2.20;;;;;;;;;;10142145;28;20456;-54
2022/09/20 15:17:21;;;;;;;2.83;0.70;;;;;;;;;;10175311;28;20036;-54
2022/09/20 15:22:15;;;;;;;3.88;1.15;;;;;;;;;;10177743;28;20499;-54
2022/09/20 15:27:11;;;;;;;2.72;1.00;;;;;;;;;;10174245;28;20071;-55
2022/09/20 15:32:05;;;;;;;2.30;1.10;;;;;;;;;;10186302;28;20059;-53
2022/09/20 15:36:59;;;;;;;4.50;1.50;;;;;;;;;;10185740;28;20055;-54
2022/09/20 15:41:53;;;;;;;5.60;2.08;;;;;;;;;;10173757;28;20123;-54
2022/09/20 15:46:49;;;;;;;4.03;1.30;;;;;;;;;;10177825;28;20044;-52
2022/09/20 15:51:45;;;;;;;5.38;1.00;;;;;;;;;;10175482;28;20057;-54
2022/09/20 15:56:41;;;;;;;1.30;0.90;;;;;;;;;;10180892;28;20077;-59
2022/09/20 16:01:42;;;;;;;3.20;1.00;;;;;;;;;;10151612;28;20064;-56
2022/09/20 16:06:36;;;;;;;3.95;1.02;;;;;;;;;;10163930;28;20337;-54
2022/09/20 16:11:31;;;;;;;5.10;1.77;;;;;;;;;;10170766;28;20083;-54
2022/09/20 16:16:26;;;;;;;2.70;0.93;;;;;;;;;;10177219;28;20513;-54
2022/09/20 16:21:20;;;;;;;3.50;0.90;;;;;;;;;;10180404;28;20056;-55
2022/09/20 16:26:14;;;;;;;2.88;0.90;;;;;;;;;;10177868;28;20071;-55
2022/09/20 16:31:34;;;;;;;3.72;0.95;;;;;;;;;;10144251;28;20056;-56
2022/09/20 16:36:27;;;;;;;3.88;1.08;;;;;;;;;;10129948;28;20049;-56
2022/09/20 16:41:22;;;;;;;4.00;1.10;;;;;;;;;;10133061;28;20068;-57
2022/09/20 16:46:20;;;;;;;4.93;1.30;;;;;;;;;;10124326;28;20061;-54
2022/09/20 16:51:14;;;;;;;1.50;0.95;;;;;;;;;;10135400;28;20492;-49
2022/09/20 16:56:08;;;;;;;3.45;1.20;;;;;;;;;;10147733;28;20400;-51
2022/09/20 17:01:05;;;;;;;1.83;1.35;;;;;;;;;;10141045;28;20052;-51
2022/09/20 17:06:05;;;;;;;5.13;1.70;;;;;;;;;;10142368;28;20067;-51
2022/09/20 17:11:00;;;;;;;3.88;1.55;;;;;;;;;;10148220;28;20128;-58
2022/09/20 17:16:05;;;;;;;4.00;2.88;;;;;;;;;;10144725;28;20044;-49
2022/09/20 17:21:05;;;;;;;3.72;2.92;;;;;;;;;;10147557;28;20083;-51
2022/09/20 17:26:07;;;;;;;7.72;3.33;;;;;;;;;;10124400;28;20498;-50
2022/09/20 17:31:02;;;;;;;2.58;2.20;;;;;;;;;;10162397;28;20071;-49
2022/09/20 17:36:00;;;;;;;5.95;2.03;;;;;;;;;;10176353;28;20055;-52
2022/09/20 17:41:06;;;;;;;17.33;10.75;;;;;;;;;;10184259;28;20052;-52
2022/09/20 17:46:07;;;;;;;11.85;4.25;;;;;;;;;;10188672;28;20056;-49
2022/09/20 17:51:02;;;;;;;13.45;3.47;;;;;;;;;;10187498;28;20134;-49
2022/09/20 17:56:02;;;;;;;10.30;3.42;;;;;;;;;;10188217;28;20052;-50
2022/09/20 18:01:02;;;;;;;3.88;1.48;;;;;;;;;;10183066;28;20445;-58
2022/09/20 18:05:56;;;;;;;7.85;1.45;;;;;;;;;;10185470;28;20044;-49
2022/09/20 18:10:57;;;;;;;4.45;1.65;;;;;;;;;;10182094;28;20056;-52
2022/09/20 18:15:51;;;;;;;2.42;1.20;;;;;;;;;;10168807;28;20055;-50
2022/09/20 18:20:45;;;;;;;3.78;2.25;;;;;;;;;;10178904;28;20080;-47
2022/09/20 18:31:04;;;;;;;5.18;2.13;;;;;;;;;;10154838;28;20060;-51
2022/09/20 18:36:02;;;;;;;4.47;2.03;;;;;;;;;;10155385;28;20548;-49
2022/09/20 18:40:59;;;;;;;7.32;2.38;;;;;;;;;;10148227;28;20064;-50
2022/09/20 18:45:53;;;;;;;3.10;2.40;;;;;;;;;;10165358;28;20063;-53
2022/09/20 18:50:58;;;;;;;6.07;1.67;;;;;;;;;;10120755;28;20053;-50
2022/09/20 18:55:55;;;;;;;9.27;1.70;;;;;;;;;;10126638;28;20518;-56
2022/09/20 19:00:56;;;;;;;4.35;1.80;;;;;;;;;;10123390;28;20123;-57
2022/09/20 19:05:54;;;;;;;6.05;1.77;;;;;;;;;;10120378;28;20045;-51
2022/09/20 19:10:51;;;;;;;;;;;;;;;;;;10121025;28;20041;-51
2022/09/20 19:15:50;;;;;;;3.50;1.77;;;;;;;;;;10123690;28;20171;-51
2022/09/20 19:21:09;;;;;;;5.90;2.10;;;;;;;;;;10119543;28;20260;-51
2022/09/20 19:26:30;;;;;;;7.53;1.80;;;;;;;;;;10114387;28;20738;-49
2022/09/20 19:31:34;;;;;;;5.07;1.50;;;;;;;;;;10112335;28;20103;-48
2022/09/20 19:36:38;;;;;;;5.57;1.98;;;;;;;;;;10110331;28;20048;-48
2022/09/20 19:41:52;;;;;;;3.17;1.70;;;;;;;;;;10128448;28;20075;-52
2022/09/20 19:47:04;;;;;;;6.75;3.90;;;;;;;;;;10124458;28;20064;-50
2022/09/20 19:52:03;;;;;;;18.48;12.13;;;;;;;;;;10107742;28;20288;-46
2022/09/20 19:57:00;;;;;;;10.43;3.53;;;;;;;;;;10120811;28;20131;-50
2022/09/20 20:01:56;;;;;;;2.95;1.85;;;;;;;;;;10098981;28;20063;-49
2022/09/20 20:07:01;;;;;;;3.75;2.10;;;;;;;;;;10106805;28;20072;-48
2022/09/20 20:12:13;;;;;;;4.30;1.95;;;;;;;;;;10120162;28;20076;-51
2022/09/20 20:17:25;;;;;;;6.22;1.98;;;;;;;;;;10124834;28;20055;-50
2022/09/20 20:23:00;;;;;;;5.40;2.00;;;;;;;;;;10129405;28;20052;-50
2022/09/20 20:27:54;;;;;;;7.07;2.13;;;;;;;;;;10122591;28;20110;-48
2022/09/20 20:32:47;;;;;;;4.13;2.20;;;;;;;;;;10134832;28;20518;-49
2022/09/20 20:37:40;;;;;;;5.05;1.80;;;;;;;;;;10133390;28;20049;-47
2022/09/20 20:42:35;;;;;;;3.50;2.15;;;;;;;;;;10139041;28;20052;-49
2022/09/20 20:47:29;;;;;;;3.55;1.63;;;;;;;;;;10137923;28;20637;-47
2022/09/20 20:52:23;;;;;;;5.45;2.28;;;;;;;;;;10137456;28;20047;-48
2022/09/20 20:57:17;;;;;;;4.82;2.47;;;;;;;;;;10138407;28;20120;-51
2022/09/20 21:02:11;;;;;;;6.10;2.08;;;;;;;;;;10141809;28;20053;-50
2022/09/20 21:07:05;;;;;;;4.30;1.85;;;;;;;;;;10146189;28;20049;-48
2022/09/20 21:11:59;;;;;;;7.65;2.45;;;;;;;;;;10145352;28;20062;-50
2022/09/20 21:16:53;;;;;;;4.85;1.42;;;;;;;;;;10139880;28;20068;-51
2022/09/20 21:21:46;;;;;;;6.97;2.13;;;;;;;;;;10146254;28;20479;-49
2022/09/20 21:26:41;;;;;;;5.13;2.45;;;;;;;;;;10147601;28;20056;-50
2022/09/20 21:31:37;;;;;;;5.45;2.13;;;;;;;;;;10159553;28;20048;-51
2022/09/20 21:36:32;;;;;;;6.78;2.75;;;;;;;;;;10157608;28;20483;-48
2022/09/20 21:41:46;;;;;;;6.95;2.30;;;;;;;;;;10156093;28;20040;-51
2022/09/20 21:46:41;;;;;;;3.45;2.15;;;;;;;;;;10151019;28;20176;-48
2022/09/20 21:51:35;;;;;;;5.60;2.55;;;;;;;;;;10150395;28;20108;-49
2022/09/20 21:56:31;;;;;;;6.95;2.30;;;;;;;;;;10150877;28;20052;-51
2022/09/20 22:01:26;;;;;;;5.00;2.65;;;;;;;;;;10159964;28;20048;-48
2022/09/20 22:06:42;;;;;;;4.03;2.53;;;;;;;;;;10161404;28;20074;-49
2022/09/20 22:11:40;;;;;;;8.40;2.85;;;;;;;;;;10157135;28;20059;-52
2022/09/20 22:16:35;;;;;;;8.77;2.90;;;;;;;;;;10150418;28;20041;-49
2022/09/20 22:21:33;;;;;;;4.60;2.90;;;;;;;;;;10164441;28;20037;-53
2022/09/20 22:26:29;;;;;;;3.75;3.08;;;;;;;;;;10155955;28;20099;-48
2022/09/20 22:31:34;;;;;;;7.97;2.67;;;;;;;;;;10165618;28;20044;-51
2022/09/20 22:36:35;;;;;;;5.88;2.90;;;;;;;;;;10183849;28;20041;-50
2022/09/20 22:41:29;;;;;;;5.90;3.30;;;;;;;;;;10183861;28;20131;-50
2022/09/20 22:46:25;;;;;;;5.85;3.40;;;;;;;;;;10180457;28;20127;-48
2022/09/20 22:51:19;;;;;;;7.38;3.28;;;;;;;;;;10187383;28;20131;-52
2022/09/20 22:56:20;;;;;;;3.75;3.10;;;;;;;;;;10186021;28;20394;-48
2022/09/20 23:01:16;;;;;;;5.53;3.28;;;;;;;;;;10186536;28;20094;-51
2022/09/20 23:06:15;;;;;;;4.85;2.97;;;;;;;;;;10183919;28;20056;-52
2022/09/20 23:11:08;;;;;;;7.50;3.83;;;;;;;;;;10184487;28;20126;-53
2022/09/20 23:16:30;;;;;;;7.03;2.95;;;;;;;;;;10172245;28;20049;-49
2022/09/20 23:21:24;;;;;;;3.92;3.00;;;;;;;;;;10179954;28;20079;-50
2022/09/20 23:26:19;;;;;;;3.90;2.72;;;;;;;;;;10177514;28;20068;-51
2022/09/20 23:31:15;;;;;;;6.03;3.40;;;;;;;;;;10160745;28;20143;-49
2022/09/20 23:36:09;;;;;;;6.75;3.28;;;;;;;;;;10173009;28;20046;-51
2022/09/20 23:41:23;;;;;;;4.93;2.10;;;;;;;;;;10185154;28;20559;-50
2022/09/20 23:46:18;;;;;;;3.85;2.50;;;;;;;;;;10177575;28;20396;-51
2022/09/20 23:51:14;;;;;;;8.93;3.00;;;;;;;;;;10182091;28;20083;-49
2022/09/20 23:56:08;;;;;;;3.42;2.17;;;;;;;;;;10182465;28;20055;-51
